createdAt,value
2019-02-07T00:00:13.846Z,28.52
2019-02-07T00:02:46.914Z,23.67
2019-02-07T00:05:18.450Z,23.73
2019-02-07T00:07:49.954Z,22.97
2019-02-07T00:10:21.705Z,25.50
2019-02-07T00:12:53.063Z,25.17
2019-02-07T00:15:24.713Z,31.65
2019-02-07T00:17:56.298Z,24.30
2019-02-07T00:20:27.829Z,23.73
2019-02-07T00:23:00.263Z,29.13
2019-02-07T00:25:31.589Z,27.77
2019-02-07T00:28:03.014Z,25.27
2019-02-07T00:30:34.342Z,25.20
2019-02-07T00:33:05.798Z,26.77
2019-02-07T00:35:37.302Z,33.60
2019-02-07T00:38:08.653Z,25.80
2019-02-07T00:40:39.958Z,19.80
2019-02-07T00:43:11.329Z,24.50
2019-02-07T00:45:42.677Z,26.13
2019-02-07T00:48:14.063Z,25.63
2019-02-07T00:50:45.423Z,19.47
2019-02-07T00:53:16.685Z,22.70
2019-02-07T00:55:48.057Z,24.70
2019-02-07T00:58:19.344Z,23.43
2019-02-07T01:00:50.791Z,22.60
2019-02-07T01:03:22.163Z,22.30
2019-02-07T01:05:53.498Z,22.23
2019-02-07T01:08:24.966Z,27.70
2019-02-07T01:10:56.466Z,22.47
2019-02-07T01:13:27.813Z,22.33
2019-02-07T01:15:59.143Z,23.87
2019-02-07T01:18:30.940Z,21.30
2019-02-07T01:21:02.318Z,25.47
2019-02-07T01:23:33.688Z,26.13
2019-02-07T01:26:05.122Z,22.17
2019-02-07T01:28:36.468Z,22.50
2019-02-07T01:31:07.846Z,23.97
2019-02-07T01:33:39.191Z,23.33
2019-02-07T01:36:10.562Z,24.37
2019-02-07T01:38:42.115Z,23.17
2019-02-07T01:41:13.513Z,23.10
2019-02-07T01:43:44.879Z,20.63
2019-02-07T01:46:16.254Z,25.53
2019-02-07T01:48:47.741Z,22.27
2019-02-07T01:51:19.101Z,21.47
2019-02-07T01:53:50.457Z,21.93
2019-02-07T01:56:21.925Z,23.03
2019-02-07T01:58:53.659Z,21.83
2019-02-07T03:01:43.283Z,19.70
2019-02-07T03:04:24.228Z,21.50
2019-02-07T03:07:17.481Z,22.33
2019-02-07T03:10:07.272Z,23.83
2019-02-07T03:13:00.192Z,18.73
2019-02-07T03:16:02.431Z,22.53
2019-02-07T03:18:49.152Z,23.83
2019-02-07T03:21:37.964Z,20.03
2019-02-07T03:24:26.692Z,24.30
2019-02-07T03:27:15.329Z,24.07
2019-02-07T03:30:04.440Z,21.83
2019-02-07T03:32:44.306Z,20.23
2019-02-07T03:35:27.577Z,23.73
2019-02-07T03:38:26.489Z,22.97
2019-02-07T03:41:08.364Z,21.10
2019-02-07T03:43:58.480Z,21.07
2019-02-07T03:46:51.624Z,24.43
2019-02-07T03:49:45.671Z,23.27
2019-02-07T03:52:39.872Z,23.13
2019-02-07T03:55:42.331Z,22.73
2019-02-07T03:58:31.081Z,22.57
2019-02-07T04:01:24.921Z,22.07
2019-02-07T04:04:29.943Z,24.43
2019-02-07T04:07:10.344Z,24.13
2019-02-07T04:10:03.224Z,22.13
2019-02-07T04:12:56.120Z,23.30
2019-02-07T04:15:46.245Z,22.60
2019-02-07T04:18:34.788Z,24.00
2019-02-07T04:21:19.980Z,22.50
2019-02-07T04:24:12.875Z,21.17
2019-02-07T04:27:01.926Z,22.30
2019-02-07T04:29:50.405Z,22.30
2019-02-07T04:32:56.845Z,22.43
2019-02-07T04:35:52.986Z,23.20
2019-02-07T04:39:01.004Z,23.00
2019-02-07T04:42:00.071Z,24.83
2019-02-07T04:44:46.562Z,23.53
2019-02-07T04:47:42.169Z,22.20
2019-02-07T04:50:35.173Z,22.20
2019-02-07T04:53:19.450Z,23.20
2019-02-07T04:56:07.787Z,21.77
2019-02-07T04:58:48.148Z,22.83
2019-02-07T05:01:47.224Z,24.63
2019-02-07T05:04:24.828Z,26.67
2019-02-07T05:07:30.124Z,25.87
2019-02-07T05:10:34.974Z,21.97
2019-02-07T05:13:37.144Z,24.30
2019-02-07T05:16:23.060Z,24.00
2019-02-07T05:19:09.231Z,24.77
2019-02-07T05:21:53.565Z,26.20
2019-02-07T05:24:49.720Z,21.57
2019-02-07T05:27:49.033Z,33.38
2019-02-07T05:30:37.982Z,24.37
2019-02-07T05:33:26.874Z,27.17
2019-02-07T05:36:10.719Z,23.37
2019-02-07T05:38:52.482Z,25.03
2019-02-07T05:41:34.788Z,21.80
2019-02-07T05:44:12.853Z,22.43
2019-02-07T05:47:15.144Z,21.87
2019-02-07T05:50:03.601Z,23.10
2019-02-07T05:52:52.693Z,21.80
2019-02-07T05:55:41.266Z,23.30
2019-02-07T05:58:20.644Z,24.77
2019-02-07T06:01:16.538Z,22.80
2019-02-07T06:04:12.593Z,27.60
2019-02-07T06:07:01.430Z,29.63
2019-02-07T06:09:54.744Z,24.07
2019-02-07T06:12:43.782Z,21.20
2019-02-07T06:15:32.770Z,21.47
2019-02-07T06:18:21.633Z,21.20
2019-02-07T06:21:01.666Z,25.97
2019-02-07T06:23:52.778Z,22.00
2019-02-07T06:26:51.833Z,26.07
2019-02-07T06:29:44.754Z,25.30
2019-02-07T06:32:40.902Z,24.37
2019-02-07T06:35:49.261Z,26.33
2019-02-07T06:38:54.060Z,25.47
2019-02-07T06:41:37.112Z,22.33
2019-02-07T06:44:35.891Z,21.93
2019-02-07T06:47:24.565Z,24.00
2019-02-07T06:50:10.351Z,23.43
2019-02-07T06:52:59.825Z,24.23
2019-02-07T06:55:48.421Z,25.80
2019-02-07T06:58:33.117Z,26.87
2019-02-07T07:01:24.396Z,26.17
2019-02-07T07:04:12.724Z,25.50
2019-02-07T07:06:54.034Z,24.77
2019-02-07T07:09:53.305Z,24.20
2019-02-07T07:13:01.381Z,23.67
2019-02-07T07:15:54.908Z,24.43
2019-02-07T07:18:49.546Z,27.60
2019-02-07T07:21:38.288Z,23.57
2019-02-07T07:24:23.964Z,24.13
2019-02-07T07:27:14.481Z,25.23
2019-02-07T07:30:10.616Z,22.43
2019-02-07T07:32:58.093Z,22.53
2019-02-07T07:35:48.060Z,22.43
2019-02-07T07:38:28.511Z,23.77
2019-02-07T07:41:24.739Z,26.80
2019-02-07T07:44:14.848Z,24.60
2019-02-07T07:46:59.142Z,22.83
2019-02-07T07:50:04.186Z,26.07
2019-02-07T07:53:02.937Z,25.97
2019-02-07T07:55:55.138Z,25.50
2019-02-07T07:58:44.470Z,24.43
2019-02-07T08:01:33.060Z,24.47
2019-02-07T08:04:13.813Z,26.10
2019-02-07T08:07:03.937Z,23.30
2019-02-07T08:10:00.291Z,24.23
2019-02-07T08:12:56.443Z,19.97
2019-02-07T08:16:04.992Z,22.70
2019-02-07T08:18:51.749Z,25.83
2019-02-07T08:21:41.869Z,27.83
2019-02-07T08:24:31.994Z,24.47
2019-02-07T08:27:20.649Z,23.73
2019-02-07T08:30:36.042Z,25.53
2019-02-07T08:33:32.329Z,23.47
2019-02-07T08:36:34.462Z,22.13
2019-02-07T08:39:28.216Z,23.73
2019-02-07T08:42:18.378Z,23.07
2019-02-07T08:45:14.590Z,23.67
2019-02-07T08:48:04.000Z,24.00
2019-02-07T08:51:10.428Z,26.73
2019-02-07T08:53:54.417Z,27.23
2019-02-07T08:56:53.515Z,24.40
2019-02-07T08:59:55.537Z,27.30
2019-02-07T09:02:51.841Z,26.27
2019-02-07T09:05:46.272Z,27.07
2019-02-07T09:08:43.146Z,23.50
2019-02-07T09:11:33.269Z,26.80
2019-02-07T09:14:22.224Z,23.60
2019-02-07T09:17:18.217Z,24.03
2019-02-07T09:20:26.372Z,25.30
2019-02-07T09:23:15.192Z,23.70
2019-02-07T09:26:04.411Z,25.43
2019-02-07T09:29:13.521Z,24.90
2019-02-07T09:32:04.688Z,24.03
2019-02-07T09:34:48.886Z,26.27
2019-02-07T09:37:37.649Z,25.57
2019-02-07T09:40:28.410Z,25.17
2019-02-07T09:43:11.005Z,26.60
2019-02-07T09:46:07.654Z,28.70
2019-02-07T09:48:58.161Z,25.60
2019-02-07T09:51:51.670Z,24.93
2019-02-07T09:54:41.765Z,25.10
2019-02-07T09:57:21.967Z,25.57
2019-02-07T10:00:12.085Z,25.27
2019-02-07T10:03:20.577Z,27.47
2019-02-07T10:06:10.697Z,23.47
2019-02-07T10:09:04.208Z,26.13
2019-02-07T10:12:06.245Z,23.10
2019-02-07T10:15:02.132Z,26.50
2019-02-07T10:17:44.825Z,24.77
2019-02-07T10:20:33.437Z,27.67
2019-02-07T10:23:26.560Z,25.93
2019-02-07T10:26:35.010Z,25.30
2019-02-07T10:29:34.224Z,24.57
2019-02-07T10:32:12.870Z,25.10
2019-02-07T10:35:09.120Z,26.80
2019-02-07T10:37:59.407Z,24.30
2019-02-07T10:40:48.693Z,25.57
2019-02-07T10:43:42.221Z,24.93
2019-02-07T10:46:42.225Z,26.87
2019-02-07T10:49:44.495Z,26.20
2019-02-07T10:52:40.008Z,26.77
2019-02-07T10:55:38.265Z,24.37
2019-02-07T10:58:27.902Z,26.73
2019-02-07T11:01:31.069Z,27.60
2019-02-07T11:04:12.248Z,26.60
2019-02-07T11:06:56.706Z,28.23
2019-02-07T11:09:39.720Z,28.60
2019-02-07T11:12:28.351Z,28.90
2019-02-07T11:15:06.618Z,31.00
2019-02-07T11:17:59.753Z,27.47
2019-02-07T11:21:02.093Z,25.27
2019-02-07T11:23:54.957Z,28.90
2019-02-07T11:26:43.372Z,26.30
2019-02-07T11:29:34.981Z,27.70
2019-02-07T11:32:40.464Z,26.57
2019-02-07T11:35:28.978Z,29.97
2019-02-07T11:38:14.000Z,27.43
2019-02-07T11:41:04.238Z,31.93
2019-02-07T11:43:52.977Z,30.90
2019-02-07T11:46:41.444Z,30.07
2019-02-07T11:49:36.815Z,32.87
2019-02-07T11:52:27.048Z,33.60
2019-02-07T11:55:20.058Z,29.87
2019-02-07T11:58:19.013Z,31.33
2019-02-07T12:01:07.621Z,31.23
2019-02-07T12:03:56.983Z,32.40
2019-02-07T12:06:53.138Z,28.33
2019-02-07T12:09:58.268Z,28.47
2019-02-07T12:12:43.160Z,28.77
2019-02-07T12:15:28.690Z,30.43
2019-02-07T12:18:24.621Z,30.67
2019-02-07T12:21:03.889Z,27.93
2019-02-07T12:23:44.610Z,33.07
2019-02-07T12:26:37.933Z,31.07
2019-02-07T12:29:28.154Z,30.40
2019-02-07T12:32:16.705Z,34.37
2019-02-07T12:35:16.031Z,31.53
2019-02-07T12:38:12.221Z,32.83
2019-02-07T12:41:11.361Z,34.20
2019-02-07T12:44:03.766Z,31.80
2019-02-07T12:47:09.826Z,27.67
2019-02-07T12:49:58.447Z,32.43
2019-02-07T12:52:57.582Z,27.97
2019-02-07T12:55:52.333Z,33.20
2019-02-07T12:58:35.529Z,34.67
2019-02-07T13:01:19.097Z,30.00
2019-02-07T13:04:09.312Z,33.77
2019-02-07T13:06:58.103Z,33.13
2019-02-07T13:09:47.291Z,32.77
2019-02-07T13:12:37.202Z,37.40
2019-02-07T13:15:34.583Z,33.30
2019-02-07T13:18:30.978Z,32.10
2019-02-07T13:21:20.026Z,29.90
2019-02-07T13:24:11.188Z,30.63
2019-02-07T13:26:59.872Z,31.03
2019-02-07T13:29:53.152Z,32.67
2019-02-07T13:32:55.105Z,36.33
2019-02-07T13:35:48.300Z,30.03
2019-02-07T13:38:33.292Z,31.40
2019-02-07T13:41:41.799Z,31.67
2019-02-07T13:44:30.673Z,33.07
2019-02-07T13:47:19.348Z,34.97
2019-02-07T13:50:08.032Z,34.13
2019-02-07T13:52:57.975Z,32.10
2019-02-07T13:55:54.223Z,44.10
2019-02-07T13:59:02.257Z,29.77
2019-02-07T14:02:03.021Z,80.93
2019-02-07T14:04:52.773Z,40.83
2019-02-07T14:07:39.748Z,33.30
2019-02-07T14:10:22.436Z,35.97
2019-02-07T14:13:27.432Z,56.10
2019-02-07T14:16:16.401Z,67.77
2019-02-07T14:19:06.577Z,50.00
2019-02-07T14:21:56.659Z,42.10
2019-02-07T14:25:02.243Z,31.30
2019-02-07T14:28:05.548Z,28.23
2019-02-07T14:31:06.299Z,30.13
2019-02-07T14:34:11.285Z,30.50
2019-02-07T14:36:52.869Z,28.83
2019-02-07T14:39:40.109Z,30.00
2019-02-07T14:42:33.290Z,28.30
2019-02-07T14:45:22.809Z,31.10
2019-02-07T14:47:54.144Z,29.03
2019-02-07T14:50:25.410Z,30.30
2019-02-07T14:52:57.734Z,31.50
2019-02-07T14:55:29.170Z,31.93
2019-02-07T14:58:01.746Z,29.30
2019-02-07T15:00:33.177Z,30.13
2019-02-07T15:03:04.589Z,28.37
2019-02-07T15:05:35.900Z,30.80
2019-02-07T15:08:07.473Z,30.33
2019-02-07T15:10:38.750Z,31.37
2019-02-07T15:13:11.931Z,31.67
2019-02-07T15:15:43.472Z,35.87
2019-02-07T15:18:14.728Z,31.60
2019-02-07T15:20:46.180Z,33.30
2019-02-07T15:23:17.429Z,31.87
2019-02-07T15:25:49.064Z,30.83
2019-02-07T15:28:20.329Z,30.40
2019-02-07T15:30:52.316Z,28.27
2019-02-07T15:33:23.861Z,29.00
2019-02-07T15:35:55.104Z,28.10
2019-02-07T15:38:26.513Z,30.50
2019-02-07T15:40:57.851Z,33.13
2019-02-07T15:43:31.202Z,29.50
2019-02-07T15:46:02.933Z,31.03
2019-02-07T15:48:34.188Z,29.37
2019-02-07T15:51:05.748Z,34.03
2019-02-07T15:53:37.033Z,32.07
2019-02-07T15:56:08.296Z,29.73
2019-02-07T15:58:47.733Z,29.87
2019-02-07T16:01:32.057Z,33.33
2019-02-07T16:04:24.936Z,34.63
2019-02-07T16:06:57.203Z,27.60
2019-02-07T16:09:29.298Z,27.73
2019-02-07T16:12:00.575Z,26.87
2019-02-07T16:14:32.747Z,28.87
2019-02-07T16:17:04.435Z,27.40
2019-02-07T16:19:36.698Z,28.23
2019-02-07T16:22:08.237Z,29.70
2019-02-07T16:24:39.517Z,28.80
2019-02-07T16:27:10.769Z,29.17
2019-02-07T16:29:42.269Z,31.07
2019-02-07T16:32:14.000Z,35.03
2019-02-07T16:34:45.256Z,31.17
2019-02-07T16:37:16.940Z,27.03
2019-02-07T16:39:48.953Z,30.60
2019-02-07T16:42:20.444Z,31.07
2019-02-07T16:44:52.257Z,31.27
2019-02-07T16:47:23.516Z,31.50
2019-02-07T16:49:54.897Z,32.50
2019-02-07T16:52:27.157Z,31.40
2019-02-07T16:54:58.789Z,27.60
2019-02-07T16:57:30.040Z,27.47
2019-02-07T17:00:01.330Z,27.83
2019-02-07T17:02:33.636Z,27.77
2019-02-07T17:05:05.957Z,28.93
2019-02-07T17:07:37.444Z,29.67
2019-02-07T17:10:11.979Z,30.20
2019-02-07T17:12:43.268Z,31.40
2019-02-07T17:15:16.813Z,29.90
2019-02-07T17:17:48.190Z,26.07
2019-02-07T17:20:28.416Z,28.23
2019-02-07T17:23:00.270Z,30.63
2019-02-07T17:25:32.161Z,29.93
2019-02-07T17:28:03.436Z,28.50
2019-02-07T17:30:35.147Z,31.33
2019-02-07T17:33:06.545Z,41.77
2019-02-07T17:35:38.003Z,93.63
2019-02-07T17:38:09.257Z,99.87
2019-02-07T17:40:40.573Z,36.53
2019-02-07T17:43:12.564Z,30.23
2019-02-07T17:45:44.005Z,29.60
2019-02-07T17:48:15.295Z,29.63
2019-02-07T17:50:46.528Z,28.83
2019-02-07T17:53:17.802Z,28.30
2019-02-07T17:55:50.061Z,27.37
2019-02-07T17:58:22.332Z,30.17
2019-02-07T18:00:59.826Z,27.67
2019-02-07T18:03:31.531Z,30.67
2019-02-07T18:06:02.780Z,32.27
2019-02-07T18:08:34.243Z,30.73
2019-02-07T18:11:07.329Z,26.93
2019-02-07T18:13:38.752Z,26.73
2019-02-07T18:16:10.104Z,30.23
2019-02-07T18:18:42.193Z,25.90
2019-02-07T18:21:13.861Z,26.67
2019-02-07T18:23:45.107Z,24.80
2019-02-07T18:26:16.380Z,28.60
2019-02-07T18:28:48.016Z,26.67
2019-02-07T18:31:19.601Z,28.93
2019-02-07T18:33:51.147Z,34.17
2019-02-07T18:36:22.422Z,34.37
2019-02-07T18:38:54.047Z,32.47
2019-02-07T18:41:25.310Z,31.97
2019-02-07T18:43:56.664Z,37.27
2019-02-07T18:46:28.246Z,33.00
2019-02-07T18:49:01.661Z,30.67
2019-02-07T18:51:32.918Z,30.67
2019-02-07T18:54:04.301Z,29.67
2019-02-07T18:56:35.572Z,30.80
2019-02-07T18:59:06.843Z,34.67
2019-02-07T19:01:38.140Z,32.20
2019-02-07T19:04:09.458Z,29.40
2019-02-07T19:06:40.713Z,29.57
2019-02-07T19:09:11.989Z,31.67
2019-02-07T19:11:43.280Z,28.80
2019-02-07T19:14:14.545Z,30.20
2019-02-07T19:16:45.830Z,31.20
2019-02-07T19:19:17.193Z,31.53
2019-02-07T19:21:56.880Z,27.00
2019-02-07T19:24:22.305Z,24.43
2019-02-07T19:26:53.982Z,26.60
2019-02-07T19:29:25.270Z,27.93
2019-02-07T19:31:56.568Z,32.13
2019-02-07T19:34:28.800Z,39.87
2019-02-07T19:37:00.096Z,29.63
2019-02-07T19:39:31.746Z,35.30
2019-02-07T19:42:03.041Z,34.67
2019-02-07T19:44:34.661Z,31.80
2019-02-07T19:47:06.152Z,29.10
2019-02-07T19:49:38.077Z,31.20
2019-02-07T19:52:09.713Z,31.20
2019-02-07T19:54:41.028Z,27.70
2019-02-07T19:57:12.682Z,28.93
2019-02-07T19:59:45.068Z,31.20
2019-02-07T20:02:16.535Z,32.70
2019-02-07T20:04:47.814Z,27.70
2019-02-07T20:07:20.433Z,29.33
2019-02-07T20:09:51.713Z,29.33
2019-02-07T20:12:23.012Z,30.53
2019-02-07T20:14:54.704Z,33.27
2019-02-07T20:17:26.020Z,27.27
2019-02-07T20:19:57.497Z,26.47
2019-02-07T20:22:28.777Z,34.80
2019-02-07T20:25:00.311Z,34.53
2019-02-07T20:27:32.656Z,28.37
2019-02-07T20:30:04.205Z,32.07
2019-02-07T20:32:35.666Z,26.60
2019-02-07T20:35:07.293Z,29.53
2019-02-07T20:37:38.552Z,27.87
2019-02-07T20:40:11.972Z,30.53
2019-02-07T20:42:43.477Z,45.17
2019-02-07T20:45:15.534Z,34.53
2019-02-07T20:47:48.354Z,34.93
2019-02-07T20:50:22.985Z,33.93
2019-02-07T20:52:54.549Z,37.93
2019-02-07T20:55:26.241Z,34.37
2019-02-07T20:57:57.795Z,30.43
2019-02-07T21:00:34.137Z,26.20
2019-02-07T21:03:06.920Z,28.40
2019-02-07T21:05:38.542Z,28.40
2019-02-07T21:08:09.897Z,33.17
2019-02-07T21:10:41.311Z,35.33
2019-02-07T21:13:12.895Z,31.63
2019-02-07T21:15:44.184Z,39.25
2019-02-07T21:18:15.536Z,31.33
2019-02-07T21:20:47.114Z,41.37
2019-02-07T21:23:18.405Z,41.40
2019-02-07T21:25:51.466Z,29.80
2019-02-07T21:28:22.936Z,33.40
2019-02-07T21:30:54.816Z,26.67
2019-02-07T21:33:26.190Z,23.80
2019-02-07T21:35:57.612Z,20.70
2019-02-07T21:38:28.936Z,24.30
2019-02-07T21:41:00.361Z,22.00
2019-02-07T21:43:31.769Z,22.17
2019-02-07T21:46:03.224Z,21.80
2019-02-07T21:48:34.486Z,20.87
2019-02-07T21:51:05.942Z,21.43
2019-02-07T21:53:37.524Z,20.40
2019-02-07T21:56:09.798Z,19.23
2019-02-07T21:58:41.055Z,18.80
2019-02-07T22:01:12.664Z,20.43
2019-02-07T22:03:44.977Z,18.83
2019-02-07T22:06:17.001Z,20.13
2019-02-07T22:08:48.950Z,21.03
2019-02-07T22:11:20.238Z,23.63
2019-02-07T22:13:51.512Z,19.17
2019-02-07T22:16:22.807Z,19.00
2019-02-07T22:18:54.076Z,17.20
2019-02-07T22:21:25.352Z,14.53
2019-02-07T22:23:56.661Z,16.67
2019-02-07T22:26:28.272Z,15.83
2019-02-07T22:28:59.640Z,15.87
2019-02-07T22:31:30.921Z,13.10
2019-02-07T22:34:02.263Z,13.37
2019-02-07T22:36:33.536Z,10.83
2019-02-07T22:39:07.393Z,20.87
2019-02-07T22:41:38.720Z,9.60
2019-02-07T22:44:10.005Z,9.90
2019-02-07T22:46:42.409Z,11.20
2019-02-07T22:49:13.730Z,11.23
2019-02-07T22:51:44.998Z,10.50
2019-02-07T22:54:16.280Z,8.83
2019-02-07T22:56:47.500Z,9.93
2019-02-07T22:59:19.186Z,8.93
2019-02-07T23:01:53.865Z,11.00
2019-02-07T23:04:26.129Z,9.17
2019-02-07T23:06:57.393Z,8.00
2019-02-07T23:09:28.774Z,8.80
2019-02-07T23:12:00.033Z,6.47
2019-02-07T23:14:31.297Z,7.40
2019-02-07T23:17:02.613Z,8.77
2019-02-07T23:19:35.474Z,8.23
2019-02-07T23:22:07.162Z,6.47
2019-02-07T23:24:38.480Z,6.80
2019-02-07T23:27:09.712Z,6.00
2019-02-07T23:29:41.108Z,6.40
2019-02-07T23:32:12.641Z,8.27
2019-02-07T23:34:43.908Z,6.30
2019-02-07T23:37:15.514Z,7.90
2019-02-07T23:39:46.809Z,7.20
2019-02-07T23:42:18.164Z,6.60
2019-02-07T23:44:49.617Z,5.97
2019-02-07T23:47:20.973Z,6.20
2019-02-07T23:49:53.041Z,5.90
2019-02-07T23:52:24.309Z,6.73
2019-02-07T23:54:55.633Z,6.47
2019-02-07T23:57:26.968Z,6.93
2019-02-07T23:59:58.228Z,5.73
